sensor_id;sensor_type;location;lat;lon;timestamp;P1;durP1;ratioP1;P2;durP2;ratioP2
77451;SDS011;66537;52.370;4.832;2023-05-19T00:01:06;16.73;;;5.75;;
77451;SDS011;66537;52.370;4.832;2023-05-19T00:03:33;16.35;;;5.20;;
77451;SDS011;66537;52.370;4.832;2023-05-19T00:06:00;16.65;;;5.20;;
77451;SDS011;66537;52.370;4.832;2023-05-19T00:08:28;16.95;;;5.03;;
77451;SDS011;66537;52.370;4.832;2023-05-19T00:10:55;17.25;;;5.13;;
77451;SDS011;66537;52.370;4.832;2023-05-19T00:13:22;17.27;;;5.72;;
77451;SDS011;66537;52.370;4.832;2023-05-19T00:15:48;18.58;;;4.85;;
77451;SDS011;66537;52.370;4.832;2023-05-19T00:18:14;16.77;;;4.85;;
77451;SDS011;66537;52.370;4.832;2023-05-19T00:20:40;18.40;;;4.72;;
77451;SDS011;66537;52.370;4.832;2023-05-19T00:23:06;11.60;;;4.40;;
77451;SDS011;66537;52.370;4.832;2023-05-19T00:25:32;13.73;;;4.40;;
77451;SDS011;66537;52.370;4.832;2023-05-19T00:27:57;16.80;;;4.63;;
77451;SDS011;66537;52.370;4.832;2023-05-19T00:30:23;19.05;;;4.97;;
77451;SDS011;66537;52.370;4.832;2023-05-19T00:32:49;17.27;;;4.60;;
77451;SDS011;66537;52.370;4.832;2023-05-19T00:35:15;14.90;;;4.50;;
77451;SDS011;66537;52.370;4.832;2023-05-19T00:37:40;15.68;;;4.70;;
77451;SDS011;66537;52.370;4.832;2023-05-19T00:40:06;18.57;;;4.53;;
77451;SDS011;66537;52.370;4.832;2023-05-19T00:42:32;20.13;;;5.38;;
77451;SDS011;66537;52.370;4.832;2023-05-19T00:44:58;17.45;;;4.50;;
77451;SDS011;66537;52.370;4.832;2023-05-19T00:47:23;15.10;;;4.38;;
77451;SDS011;66537;52.370;4.832;2023-05-19T00:49:49;18.00;;;4.55;;
77451;SDS011;66537;52.370;4.832;2023-05-19T00:52:14;14.02;;;3.78;;
77451;SDS011;66537;52.370;4.832;2023-05-19T00:54:40;16.83;;;4.85;;
77451;SDS011;66537;52.370;4.832;2023-05-19T00:57:06;15.32;;;4.95;;
77451;SDS011;66537;52.370;4.832;2023-05-19T00:59:32;21.73;;;5.40;;
77451;SDS011;66537;52.370;4.832;2023-05-19T01:01:57;14.10;;;4.10;;
77451;SDS011;66537;52.370;4.832;2023-05-19T01:04:22;13.30;;;4.10;;
77451;SDS011;66537;52.370;4.832;2023-05-19T01:06:49;13.00;;;3.95;;
77451;SDS011;66537;52.370;4.832;2023-05-19T01:09:21;21.00;;;4.63;;
77451;SDS011;66537;52.370;4.832;2023-05-19T01:11:47;18.10;;;4.20;;
77451;SDS011;66537;52.370;4.832;2023-05-19T01:14:13;15.27;;;4.20;;
77451;SDS011;66537;52.370;4.832;2023-05-19T01:16:41;17.20;;;4.65;;
77451;SDS011;66537;52.370;4.832;2023-05-19T01:22:11;17.05;;;4.20;;
77451;SDS011;66537;52.370;4.832;2023-05-19T01:30:17;22.33;;;4.47;;
77451;SDS011;66537;52.370;4.832;2023-05-19T01:32:50;15.88;;;4.70;;
77451;SDS011;66537;52.370;4.832;2023-05-19T01:35:18;14.80;;;4.70;;
77451;SDS011;66537;52.370;4.832;2023-05-19T01:37:47;17.50;;;5.50;;
77451;SDS011;66537;52.370;4.832;2023-05-19T01:40:14;17.65;;;5.07;;
77451;SDS011;66537;52.370;4.832;2023-05-19T01:42:39;21.92;;;5.45;;
77451;SDS011;66537;52.370;4.832;2023-05-19T01:45:06;15.13;;;4.93;;
77451;SDS011;66537;52.370;4.832;2023-05-19T01:47:41;20.70;;;4.93;;
77451;SDS011;66537;52.370;4.832;2023-05-19T01:50:08;19.83;;;5.13;;
77451;SDS011;66537;52.370;4.832;2023-05-19T01:52:34;12.68;;;4.97;;
77451;SDS011;66537;52.370;4.832;2023-05-19T01:54:59;16.27;;;4.80;;
77451;SDS011;66537;52.370;4.832;2023-05-19T02:05:18;15.90;;;5.25;;
77451;SDS011;66537;52.370;4.832;2023-05-19T02:07:56;17.85;;;5.13;;
77451;SDS011;66537;52.370;4.832;2023-05-19T02:10:28;20.15;;;5.03;;
77451;SDS011;66537;52.370;4.832;2023-05-19T02:12:57;20.88;;;5.60;;
77451;SDS011;66537;52.370;4.832;2023-05-19T02:15:29;18.40;;;6.00;;
77451;SDS011;66537;52.370;4.832;2023-05-19T02:18:02;19.17;;;5.45;;
77451;SDS011;66537;52.370;4.832;2023-05-19T02:20:29;16.95;;;5.22;;
77451;SDS011;66537;52.370;4.832;2023-05-19T02:22:55;18.90;;;5.68;;
77451;SDS011;66537;52.370;4.832;2023-05-19T02:25:20;20.52;;;5.53;;
77451;SDS011;66537;52.370;4.832;2023-05-19T02:27:47;14.88;;;5.55;;
77451;SDS011;66537;52.370;4.832;2023-05-19T02:30:13;22.35;;;6.03;;
77451;SDS011;66537;52.370;4.832;2023-05-19T02:32:38;21.17;;;7.15;;
77451;SDS011;66537;52.370;4.832;2023-05-19T02:35:04;19.42;;;5.30;;
77451;SDS011;66537;52.370;4.832;2023-05-19T02:37:30;18.27;;;5.45;;
77451;SDS011;66537;52.370;4.832;2023-05-19T02:39:56;14.40;;;4.53;;
77451;SDS011;66537;52.370;4.832;2023-05-19T02:42:22;19.58;;;5.35;;
77451;SDS011;66537;52.370;4.832;2023-05-19T02:44:47;23.33;;;5.20;;
77451;SDS011;66537;52.370;4.832;2023-05-19T02:47:13;17.27;;;5.82;;
77451;SDS011;66537;52.370;4.832;2023-05-19T02:49:38;17.60;;;6.15;;
77451;SDS011;66537;52.370;4.832;2023-05-19T02:52:04;23.25;;;5.57;;
77451;SDS011;66537;52.370;4.832;2023-05-19T02:54:31;13.80;;;4.85;;
77451;SDS011;66537;52.370;4.832;2023-05-19T02:56:57;16.80;;;5.75;;
77451;SDS011;66537;52.370;4.832;2023-05-19T02:59:23;20.13;;;6.20;;
77451;SDS011;66537;52.370;4.832;2023-05-19T03:01:49;27.17;;;6.57;;
77451;SDS011;66537;52.370;4.832;2023-05-19T03:04:14;17.45;;;5.45;;
77451;SDS011;66537;52.370;4.832;2023-05-19T03:06:40;17.90;;;4.93;;
77451;SDS011;66537;52.370;4.832;2023-05-19T03:09:06;22.50;;;5.95;;
77451;SDS011;66537;52.370;4.832;2023-05-19T03:11:32;19.45;;;5.60;;
77451;SDS011;66537;52.370;4.832;2023-05-19T03:13:57;20.50;;;5.93;;
77451;SDS011;66537;52.370;4.832;2023-05-19T03:16:22;18.83;;;5.90;;
77451;SDS011;66537;52.370;4.832;2023-05-19T03:18:48;19.50;;;6.13;;
77451;SDS011;66537;52.370;4.832;2023-05-19T03:21:14;21.25;;;5.60;;
77451;SDS011;66537;52.370;4.832;2023-05-19T03:23:39;22.55;;;6.72;;
77451;SDS011;66537;52.370;4.832;2023-05-19T03:26:05;22.63;;;6.38;;
77451;SDS011;66537;52.370;4.832;2023-05-19T03:28:30;22.97;;;6.53;;
77451;SDS011;66537;52.370;4.832;2023-05-19T03:30:55;24.87;;;6.40;;
77451;SDS011;66537;52.370;4.832;2023-05-19T03:33:20;21.60;;;6.43;;
77451;SDS011;66537;52.370;4.832;2023-05-19T03:35:48;15.40;;;5.07;;
77451;SDS011;66537;52.370;4.832;2023-05-19T03:38:13;22.48;;;5.80;;
77451;SDS011;66537;52.370;4.832;2023-05-19T03:40:39;19.95;;;6.00;;
77451;SDS011;66537;52.370;4.832;2023-05-19T03:43:05;18.83;;;5.38;;
77451;SDS011;66537;52.370;4.832;2023-05-19T03:45:31;20.20;;;6.20;;
77451;SDS011;66537;52.370;4.832;2023-05-19T03:47:56;28.10;;;7.53;;
77451;SDS011;66537;52.370;4.832;2023-05-19T03:50:22;19.17;;;6.23;;
77451;SDS011;66537;52.370;4.832;2023-05-19T03:52:47;18.92;;;6.72;;
77451;SDS011;66537;52.370;4.832;2023-05-19T03:55:13;18.60;;;5.75;;
77451;SDS011;66537;52.370;4.832;2023-05-19T03:57:44;24.63;;;6.22;;
77451;SDS011;66537;52.370;4.832;2023-05-19T04:00:09;20.50;;;6.50;;
77451;SDS011;66537;52.370;4.832;2023-05-19T04:02:36;20.42;;;6.53;;
77451;SDS011;66537;52.370;4.832;2023-05-19T04:05:01;19.33;;;6.20;;
77451;SDS011;66537;52.370;4.832;2023-05-19T04:07:29;17.92;;;5.07;;
77451;SDS011;66537;52.370;4.832;2023-05-19T04:09:55;23.27;;;7.47;;
77451;SDS011;66537;52.370;4.832;2023-05-19T04:12:20;20.00;;;6.10;;
77451;SDS011;66537;52.370;4.832;2023-05-19T04:14:45;22.03;;;6.20;;
77451;SDS011;66537;52.370;4.832;2023-05-19T04:17:11;23.17;;;6.53;;
77451;SDS011;66537;52.370;4.832;2023-05-19T04:19:36;21.77;;;6.28;;
77451;SDS011;66537;52.370;4.832;2023-05-19T04:22:02;20.83;;;6.13;;
77451;SDS011;66537;52.370;4.832;2023-05-19T04:24:27;21.23;;;6.75;;
77451;SDS011;66537;52.370;4.832;2023-05-19T04:26:52;25.00;;;7.80;;
77451;SDS011;66537;52.370;4.832;2023-05-19T04:29:18;24.08;;;5.60;;
77451;SDS011;66537;52.370;4.832;2023-05-19T04:31:43;22.30;;;5.83;;
77451;SDS011;66537;52.370;4.832;2023-05-19T04:34:09;22.88;;;6.07;;
77451;SDS011;66537;52.370;4.832;2023-05-19T04:36:35;23.42;;;6.68;;
77451;SDS011;66537;52.370;4.832;2023-05-19T04:39:00;24.35;;;7.30;;
77451;SDS011;66537;52.370;4.832;2023-05-19T04:41:32;31.58;;;7.20;;
77451;SDS011;66537;52.370;4.832;2023-05-19T04:43:58;22.58;;;6.13;;
77451;SDS011;66537;52.370;4.832;2023-05-19T04:46:24;22.03;;;5.63;;
77451;SDS011;66537;52.370;4.832;2023-05-19T04:48:51;19.63;;;7.45;;
77451;SDS011;66537;52.370;4.832;2023-05-19T04:51:17;24.90;;;7.60;;
77451;SDS011;66537;52.370;4.832;2023-05-19T04:53:43;24.77;;;7.70;;
77451;SDS011;66537;52.370;4.832;2023-05-19T04:56:09;20.70;;;6.72;;
77451;SDS011;66537;52.370;4.832;2023-05-19T04:58:38;25.70;;;8.55;;
77451;SDS011;66537;52.370;4.832;2023-05-19T05:01:05;27.63;;;8.38;;
77451;SDS011;66537;52.370;4.832;2023-05-19T05:03:31;23.17;;;7.65;;
77451;SDS011;66537;52.370;4.832;2023-05-19T05:05:58;29.02;;;7.10;;
77451;SDS011;66537;52.370;4.832;2023-05-19T05:08:23;24.05;;;7.53;;
77451;SDS011;66537;52.370;4.832;2023-05-19T05:10:49;21.23;;;6.43;;
77451;SDS011;66537;52.370;4.832;2023-05-19T05:13:16;26.27;;;7.32;;
77451;SDS011;66537;52.370;4.832;2023-05-19T05:15:46;20.98;;;6.50;;
77451;SDS011;66537;52.370;4.832;2023-05-19T05:18:12;25.05;;;6.90;;
77451;SDS011;66537;52.370;4.832;2023-05-19T05:20:38;18.58;;;5.85;;
77451;SDS011;66537;52.370;4.832;2023-05-19T05:23:04;23.42;;;7.55;;
77451;SDS011;66537;52.370;4.832;2023-05-19T05:25:29;25.55;;;6.25;;
77451;SDS011;66537;52.370;4.832;2023-05-19T05:27:55;22.00;;;6.60;;
77451;SDS011;66537;52.370;4.832;2023-05-19T05:30:22;18.50;;;6.70;;
77451;SDS011;66537;52.370;4.832;2023-05-19T05:32:48;28.27;;;6.97;;
77451;SDS011;66537;52.370;4.832;2023-05-19T05:35:13;23.30;;;6.97;;
77451;SDS011;66537;52.370;4.832;2023-05-19T05:37:39;18.80;;;6.68;;
77451;SDS011;66537;52.370;4.832;2023-05-19T05:40:04;22.50;;;6.85;;
77451;SDS011;66537;52.370;4.832;2023-05-19T05:42:31;26.08;;;7.13;;
77451;SDS011;66537;52.370;4.832;2023-05-19T05:44:56;22.23;;;7.68;;
77451;SDS011;66537;52.370;4.832;2023-05-19T05:47:21;26.92;;;6.97;;
77451;SDS011;66537;52.370;4.832;2023-05-19T05:49:47;24.95;;;6.93;;
77451;SDS011;66537;52.370;4.832;2023-05-19T05:52:12;26.20;;;7.25;;
77451;SDS011;66537;52.370;4.832;2023-05-19T05:54:39;28.10;;;8.10;;
77451;SDS011;66537;52.370;4.832;2023-05-19T05:57:05;27.42;;;7.53;;
77451;SDS011;66537;52.370;4.832;2023-05-19T05:59:31;21.33;;;6.68;;
77451;SDS011;66537;52.370;4.832;2023-05-19T06:01:59;31.45;;;7.07;;
77451;SDS011;66537;52.370;4.832;2023-05-19T06:04:24;20.25;;;6.43;;
77451;SDS011;66537;52.370;4.832;2023-05-19T06:06:50;18.85;;;5.93;;
77451;SDS011;66537;52.370;4.832;2023-05-19T06:09:16;20.58;;;5.72;;
77451;SDS011;66537;52.370;4.832;2023-05-19T06:11:42;21.80;;;5.95;;
77451;SDS011;66537;52.370;4.832;2023-05-19T06:14:07;16.53;;;5.30;;
77451;SDS011;66537;52.370;4.832;2023-05-19T06:16:32;21.20;;;5.43;;
77451;SDS011;66537;52.370;4.832;2023-05-19T06:18:58;17.07;;;5.60;;
77451;SDS011;66537;52.370;4.832;2023-05-19T06:21:23;16.80;;;5.40;;
77451;SDS011;66537;52.370;4.832;2023-05-19T06:23:48;19.63;;;5.85;;
77451;SDS011;66537;52.370;4.832;2023-05-19T06:26:14;19.10;;;6.50;;
77451;SDS011;66537;52.370;4.832;2023-05-19T06:28:39;17.38;;;5.75;;
77451;SDS011;66537;52.370;4.832;2023-05-19T06:31:05;23.53;;;5.33;;
77451;SDS011;66537;52.370;4.832;2023-05-19T06:33:30;18.88;;;5.53;;
77451;SDS011;66537;52.370;4.832;2023-05-19T06:35:55;18.97;;;6.27;;
77451;SDS011;66537;52.370;4.832;2023-05-19T06:38:21;17.27;;;5.97;;
77451;SDS011;66537;52.370;4.832;2023-05-19T06:40:46;15.67;;;5.37;;
77451;SDS011;66537;52.370;4.832;2023-05-19T06:43:12;15.27;;;6.10;;
77451;SDS011;66537;52.370;4.832;2023-05-19T06:45:37;16.43;;;5.80;;
77451;SDS011;66537;52.370;4.832;2023-05-19T06:48:02;16.60;;;5.63;;
77451;SDS011;66537;52.370;4.832;2023-05-19T06:50:28;23.08;;;5.85;;
77451;SDS011;66537;52.370;4.832;2023-05-19T06:52:53;14.90;;;5.33;;
77451;SDS011;66537;52.370;4.832;2023-05-19T06:55:18;13.93;;;5.20;;
77451;SDS011;66537;52.370;4.832;2023-05-19T06:57:44;18.83;;;5.07;;
77451;SDS011;66537;52.370;4.832;2023-05-19T07:00:10;20.05;;;5.40;;
77451;SDS011;66537;52.370;4.832;2023-05-19T07:02:36;17.95;;;5.70;;
77451;SDS011;66537;52.370;4.832;2023-05-19T07:05:02;23.08;;;6.05;;
77451;SDS011;66537;52.370;4.832;2023-05-19T07:07:27;16.40;;;5.45;;
77451;SDS011;66537;52.370;4.832;2023-05-19T07:09:53;18.33;;;5.18;;
77451;SDS011;66537;52.370;4.832;2023-05-19T07:12:18;16.73;;;4.95;;
77451;SDS011;66537;52.370;4.832;2023-05-19T07:14:43;16.02;;;5.28;;
77451;SDS011;66537;52.370;4.832;2023-05-19T07:17:09;19.52;;;5.30;;
77451;SDS011;66537;52.370;4.832;2023-05-19T07:19:34;15.18;;;4.63;;
77451;SDS011;66537;52.370;4.832;2023-05-19T07:22:00;17.02;;;5.00;;
77451;SDS011;66537;52.370;4.832;2023-05-19T07:24:25;21.35;;;4.95;;
77451;SDS011;66537;52.370;4.832;2023-05-19T07:26:51;15.35;;;4.43;;
77451;SDS011;66537;52.370;4.832;2023-05-19T07:29:16;19.10;;;5.22;;
77451;SDS011;66537;52.370;4.832;2023-05-19T07:31:42;17.77;;;4.47;;
77451;SDS011;66537;52.370;4.832;2023-05-19T07:34:07;16.17;;;4.43;;
77451;SDS011;66537;52.370;4.832;2023-05-19T07:36:33;15.70;;;4.60;;
77451;SDS011;66537;52.370;4.832;2023-05-19T07:38:58;19.60;;;5.50;;
77451;SDS011;66537;52.370;4.832;2023-05-19T07:41:23;21.58;;;5.15;;
77451;SDS011;66537;52.370;4.832;2023-05-19T07:43:50;13.38;;;4.55;;
77451;SDS011;66537;52.370;4.832;2023-05-19T07:46:15;15.48;;;4.63;;
77451;SDS011;66537;52.370;4.832;2023-05-19T07:48:40;14.63;;;5.15;;
77451;SDS011;66537;52.370;4.832;2023-05-19T07:51:06;16.77;;;5.33;;
77451;SDS011;66537;52.370;4.832;2023-05-19T07:53:34;15.20;;;4.20;;
77451;SDS011;66537;52.370;4.832;2023-05-19T07:56:00;17.02;;;5.07;;
77451;SDS011;66537;52.370;4.832;2023-05-19T07:58:25;15.67;;;4.33;;
77451;SDS011;66537;52.370;4.832;2023-05-19T08:00:50;14.30;;;5.13;;
77451;SDS011;66537;52.370;4.832;2023-05-19T08:03:17;14.18;;;4.10;;
77451;SDS011;66537;52.370;4.832;2023-05-19T08:05:42;16.17;;;4.63;;
77451;SDS011;66537;52.370;4.832;2023-05-19T08:08:08;14.00;;;4.07;;
77451;SDS011;66537;52.370;4.832;2023-05-19T08:10:33;14.07;;;4.35;;
77451;SDS011;66537;52.370;4.832;2023-05-19T08:12:58;14.50;;;4.17;;
77451;SDS011;66537;52.370;4.832;2023-05-19T08:15:24;14.87;;;5.07;;
77451;SDS011;66537;52.370;4.832;2023-05-19T08:17:49;13.60;;;4.88;;
77451;SDS011;66537;52.370;4.832;2023-05-19T08:20:15;19.65;;;4.43;;
77451;SDS011;66537;52.370;4.832;2023-05-19T08:22:40;12.50;;;4.63;;
77451;SDS011;66537;52.370;4.832;2023-05-19T08:25:06;18.83;;;4.97;;
77451;SDS011;66537;52.370;4.832;2023-05-19T08:27:32;14.52;;;3.95;;
77451;SDS011;66537;52.370;4.832;2023-05-19T08:29:57;16.80;;;5.10;;
77451;SDS011;66537;52.370;4.832;2023-05-19T08:32:23;16.77;;;3.95;;
77451;SDS011;66537;52.370;4.832;2023-05-19T08:34:48;17.17;;;3.70;;
77451;SDS011;66537;52.370;4.832;2023-05-19T08:37:14;16.02;;;3.70;;
77451;SDS011;66537;52.370;4.832;2023-05-19T08:39:39;17.45;;;4.65;;
77451;SDS011;66537;52.370;4.832;2023-05-19T08:42:04;14.63;;;3.85;;
77451;SDS011;66537;52.370;4.832;2023-05-19T08:44:31;14.63;;;4.13;;
77451;SDS011;66537;52.370;4.832;2023-05-19T08:46:59;18.23;;;4.07;;
77451;SDS011;66537;52.370;4.832;2023-05-19T08:49:27;14.30;;;4.28;;
77451;SDS011;66537;52.370;4.832;2023-05-19T08:57:45;17.85;;;3.92;;
77451;SDS011;66537;52.370;4.832;2023-05-19T09:00:13;18.63;;;4.43;;
77451;SDS011;66537;52.370;4.832;2023-05-19T09:02:41;16.38;;;4.90;;
77451;SDS011;66537;52.370;4.832;2023-05-19T09:05:07;15.88;;;4.07;;
77451;SDS011;66537;52.370;4.832;2023-05-19T09:07:34;15.48;;;4.07;;
77451;SDS011;66537;52.370;4.832;2023-05-19T09:10:00;18.05;;;4.03;;
77451;SDS011;66537;52.370;4.832;2023-05-19T09:12:29;17.13;;;4.63;;
77451;SDS011;66537;52.370;4.832;2023-05-19T09:14:55;11.52;;;4.32;;
77451;SDS011;66537;52.370;4.832;2023-05-19T09:17:22;17.00;;;4.05;;
77451;SDS011;66537;52.370;4.832;2023-05-19T09:19:47;19.85;;;4.03;;
77451;SDS011;66537;52.370;4.832;2023-05-19T09:22:16;15.40;;;4.15;;
77451;SDS011;66537;52.370;4.832;2023-05-19T09:24:45;16.92;;;4.65;;
77451;SDS011;66537;52.370;4.832;2023-05-19T09:27:20;18.17;;;4.30;;
77451;SDS011;66537;52.370;4.832;2023-05-19T09:29:50;17.17;;;3.60;;
77451;SDS011;66537;52.370;4.832;2023-05-19T09:32:36;13.93;;;3.85;;
77451;SDS011;66537;52.370;4.832;2023-05-19T09:35:02;15.70;;;4.63;;
77451;SDS011;66537;52.370;4.832;2023-05-19T09:37:28;13.38;;;4.13;;
77451;SDS011;66537;52.370;4.832;2023-05-19T09:39:53;12.00;;;4.00;;
77451;SDS011;66537;52.370;4.832;2023-05-19T09:42:25;17.02;;;4.68;;
77451;SDS011;66537;52.370;4.832;2023-05-19T09:45:00;13.30;;;4.38;;
77451;SDS011;66537;52.370;4.832;2023-05-19T09:47:27;11.48;;;4.35;;
77451;SDS011;66537;52.370;4.832;2023-05-19T09:49:57;17.05;;;4.60;;
77451;SDS011;66537;52.370;4.832;2023-05-19T09:52:22;14.48;;;4.55;;
77451;SDS011;66537;52.370;4.832;2023-05-19T09:54:48;22.60;;;5.93;;
77451;SDS011;66537;52.370;4.832;2023-05-19T09:57:15;12.77;;;4.68;;
77451;SDS011;66537;52.370;4.832;2023-05-19T09:59:41;18.52;;;4.25;;
77451;SDS011;66537;52.370;4.832;2023-05-19T10:02:08;14.27;;;4.10;;
77451;SDS011;66537;52.370;4.832;2023-05-19T10:04:40;17.63;;;4.20;;
77451;SDS011;66537;52.370;4.832;2023-05-19T10:07:06;14.55;;;4.30;;
77451;SDS011;66537;52.370;4.832;2023-05-19T10:09:33;12.82;;;4.82;;
77451;SDS011;66537;52.370;4.832;2023-05-19T10:12:00;17.05;;;4.55;;
77451;SDS011;66537;52.370;4.832;2023-05-19T10:14:27;14.73;;;4.50;;
77451;SDS011;66537;52.370;4.832;2023-05-19T10:16:54;13.00;;;3.67;;
77451;SDS011;66537;52.370;4.832;2023-05-19T10:19:21;14.68;;;3.40;;
77451;SDS011;66537;52.370;4.832;2023-05-19T10:21:49;16.05;;;3.30;;
77451;SDS011;66537;52.370;4.832;2023-05-19T10:24:15;16.25;;;4.32;;
77451;SDS011;66537;52.370;4.832;2023-05-19T10:26:42;14.95;;;3.63;;
77451;SDS011;66537;52.370;4.832;2023-05-19T10:29:11;14.18;;;3.53;;
77451;SDS011;66537;52.370;4.832;2023-05-19T10:31:41;11.88;;;3.33;;
77451;SDS011;66537;52.370;4.832;2023-05-19T10:36:48;14.05;;;3.30;;
77451;SDS011;66537;52.370;4.832;2023-05-19T10:39:27;15.05;;;3.28;;
77451;SDS011;66537;52.370;4.832;2023-05-19T10:42:35;16.38;;;3.92;;
77451;SDS011;66537;52.370;4.832;2023-05-19T10:47:41;14.13;;;3.80;;
77451;SDS011;66537;52.370;4.832;2023-05-19T10:50:08;9.52;;;2.55;;
77451;SDS011;66537;52.370;4.832;2023-05-19T10:52:37;11.38;;;3.05;;
77451;SDS011;66537;52.370;4.832;2023-05-19T10:55:07;10.27;;;3.03;;
77451;SDS011;66537;52.370;4.832;2023-05-19T10:57:53;13.55;;;3.42;;
77451;SDS011;66537;52.370;4.832;2023-05-19T11:00:25;13.55;;;3.63;;
77451;SDS011;66537;52.370;4.832;2023-05-19T11:02:52;11.52;;;2.92;;
77451;SDS011;66537;52.370;4.832;2023-05-19T11:05:26;12.80;;;3.35;;
77451;SDS011;66537;52.370;4.832;2023-05-19T11:07:57;12.82;;;3.20;;
77451;SDS011;66537;52.370;4.832;2023-05-19T11:10:28;13.13;;;3.33;;
77451;SDS011;66537;52.370;4.832;2023-05-19T11:12:53;12.52;;;3.53;;
77451;SDS011;66537;52.370;4.832;2023-05-19T11:15:23;11.85;;;2.60;;
77451;SDS011;66537;52.370;4.832;2023-05-19T11:17:51;12.98;;;3.35;;
77451;SDS011;66537;52.370;4.832;2023-05-19T11:20:24;21.35;;;3.67;;
77451;SDS011;66537;52.370;4.832;2023-05-19T11:23:24;13.00;;;2.95;;
77451;SDS011;66537;52.370;4.832;2023-05-19T11:28:14;11.40;;;2.72;;
77451;SDS011;66537;52.370;4.832;2023-05-19T11:30:40;12.10;;;2.50;;
77451;SDS011;66537;52.370;4.832;2023-05-19T11:33:07;14.23;;;2.65;;
77451;SDS011;66537;52.370;4.832;2023-05-19T11:35:33;10.73;;;3.20;;
77451;SDS011;66537;52.370;4.832;2023-05-19T11:37:59;15.95;;;3.03;;
77451;SDS011;66537;52.370;4.832;2023-05-19T11:40:25;14.27;;;2.90;;
77451;SDS011;66537;52.370;4.832;2023-05-19T11:42:51;12.43;;;3.20;;
77451;SDS011;66537;52.370;4.832;2023-05-19T11:45:16;14.77;;;4.57;;
77451;SDS011;66537;52.370;4.832;2023-05-19T11:47:47;11.50;;;3.67;;
77451;SDS011;66537;52.370;4.832;2023-05-19T11:50:13;14.10;;;2.95;;
77451;SDS011;66537;52.370;4.832;2023-05-19T11:52:43;15.80;;;3.20;;
77451;SDS011;66537;52.370;4.832;2023-05-19T11:55:14;17.05;;;3.88;;
77451;SDS011;66537;52.370;4.832;2023-05-19T11:58:01;15.43;;;3.22;;
77451;SDS011;66537;52.370;4.832;2023-05-19T12:00:28;14.48;;;3.63;;
77451;SDS011;66537;52.370;4.832;2023-05-19T12:02:55;13.65;;;2.92;;
77451;SDS011;66537;52.370;4.832;2023-05-19T12:05:24;13.15;;;3.25;;
77451;SDS011;66537;52.370;4.832;2023-05-19T12:07:51;16.00;;;3.53;;
77451;SDS011;66537;52.370;4.832;2023-05-19T12:10:20;10.40;;;2.70;;
77451;SDS011;66537;52.370;4.832;2023-05-19T12:12:50;13.52;;;3.05;;
77451;SDS011;66537;52.370;4.832;2023-05-19T12:15:19;11.38;;;3.00;;
77451;SDS011;66537;52.370;4.832;2023-05-19T12:17:48;9.70;;;3.70;;
77451;SDS011;66537;52.370;4.832;2023-05-19T12:20:14;18.60;;;3.97;;
77451;SDS011;66537;52.370;4.832;2023-05-19T12:22:39;14.55;;;4.03;;
77451;SDS011;66537;52.370;4.832;2023-05-19T12:25:05;13.85;;;4.10;;
77451;SDS011;66537;52.370;4.832;2023-05-19T12:27:33;14.88;;;4.05;;
77451;SDS011;66537;52.370;4.832;2023-05-19T12:30:01;13.23;;;4.38;;
77451;SDS011;66537;52.370;4.832;2023-05-19T12:32:27;14.90;;;4.13;;
77451;SDS011;66537;52.370;4.832;2023-05-19T12:34:56;14.07;;;3.57;;
77451;SDS011;66537;52.370;4.832;2023-05-19T12:37:25;17.88;;;3.88;;
77451;SDS011;66537;52.370;4.832;2023-05-19T12:39:51;12.93;;;3.50;;
77451;SDS011;66537;52.370;4.832;2023-05-19T12:42:17;18.13;;;4.47;;
77451;SDS011;66537;52.370;4.832;2023-05-19T12:44:49;10.13;;;3.45;;
77451;SDS011;66537;52.370;4.832;2023-05-19T12:47:16;13.05;;;3.63;;
77451;SDS011;66537;52.370;4.832;2023-05-19T12:52:24;17.75;;;4.63;;
77451;SDS011;66537;52.370;4.832;2023-05-19T12:55:01;11.98;;;3.42;;
77451;SDS011;66537;52.370;4.832;2023-05-19T12:57:29;13.00;;;3.15;;
77451;SDS011;66537;52.370;4.832;2023-05-19T12:59:59;17.73;;;3.90;;
77451;SDS011;66537;52.370;4.832;2023-05-19T13:02:34;14.30;;;3.15;;
77451;SDS011;66537;52.370;4.832;2023-05-19T13:05:01;13.93;;;3.40;;
77451;SDS011;66537;52.370;4.832;2023-05-19T13:07:27;12.60;;;3.05;;
77451;SDS011;66537;52.370;4.832;2023-05-19T13:09:53;13.32;;;3.25;;
77451;SDS011;66537;52.370;4.832;2023-05-19T13:12:18;12.77;;;3.20;;
77451;SDS011;66537;52.370;4.832;2023-05-19T13:14:44;14.38;;;4.50;;
77451;SDS011;66537;52.370;4.832;2023-05-19T13:17:09;16.42;;;4.07;;
77451;SDS011;66537;52.370;4.832;2023-05-19T13:19:35;10.45;;;3.00;;
77451;SDS011;66537;52.370;4.832;2023-05-19T13:22:00;13.77;;;3.88;;
77451;SDS011;66537;52.370;4.832;2023-05-19T13:24:26;10.23;;;2.92;;
77451;SDS011;66537;52.370;4.832;2023-05-19T13:26:51;10.23;;;2.90;;
77451;SDS011;66537;52.370;4.832;2023-05-19T13:29:16;15.17;;;2.83;;
77451;SDS011;66537;52.370;4.832;2023-05-19T13:31:42;9.00;;;2.80;;
77451;SDS011;66537;52.370;4.832;2023-05-19T13:34:07;10.10;;;2.70;;
77451;SDS011;66537;52.370;4.832;2023-05-19T13:36:32;14.30;;;3.20;;
77451;SDS011;66537;52.370;4.832;2023-05-19T13:38:58;15.90;;;3.20;;
77451;SDS011;66537;52.370;4.832;2023-05-19T13:41:24;9.57;;;3.30;;
77451;SDS011;66537;52.370;4.832;2023-05-19T13:43:51;13.57;;;3.22;;
77451;SDS011;66537;52.370;4.832;2023-05-19T13:46:17;12.77;;;3.33;;
77451;SDS011;66537;52.370;4.832;2023-05-19T13:48:42;15.13;;;3.55;;
77451;SDS011;66537;52.370;4.832;2023-05-19T13:51:07;14.57;;;3.40;;
77451;SDS011;66537;52.370;4.832;2023-05-19T13:53:33;9.40;;;3.30;;
77451;SDS011;66537;52.370;4.832;2023-05-19T13:55:59;12.30;;;3.13;;
77451;SDS011;66537;52.370;4.832;2023-05-19T13:58:24;14.75;;;4.13;;
77451;SDS011;66537;52.370;4.832;2023-05-19T14:00:50;11.80;;;3.40;;
77451;SDS011;66537;52.370;4.832;2023-05-19T14:03:18;11.80;;;2.80;;
77451;SDS011;66537;52.370;4.832;2023-05-19T14:05:44;12.68;;;3.28;;
77451;SDS011;66537;52.370;4.832;2023-05-19T14:08:11;18.40;;;3.90;;
77451;SDS011;66537;52.370;4.832;2023-05-19T14:10:36;15.98;;;3.33;;
77451;SDS011;66537;52.370;4.832;2023-05-19T14:13:02;11.53;;;3.43;;
77451;SDS011;66537;52.370;4.832;2023-05-19T14:15:28;11.75;;;3.13;;
77451;SDS011;66537;52.370;4.832;2023-05-19T14:17:53;9.48;;;2.65;;
77451;SDS011;66537;52.370;4.832;2023-05-19T14:20:19;12.93;;;3.63;;
77451;SDS011;66537;52.370;4.832;2023-05-19T14:22:44;14.55;;;3.13;;
77451;SDS011;66537;52.370;4.832;2023-05-19T14:25:09;12.77;;;3.80;;
77451;SDS011;66537;52.370;4.832;2023-05-19T14:27:35;11.05;;;3.10;;
77451;SDS011;66537;52.370;4.832;2023-05-19T14:30:00;16.17;;;4.07;;
77451;SDS011;66537;52.370;4.832;2023-05-19T14:32:26;10.77;;;3.10;;
77451;SDS011;66537;52.370;4.832;2023-05-19T14:34:51;11.87;;;2.87;;
77451;SDS011;66537;52.370;4.832;2023-05-19T14:37:17;13.35;;;3.05;;
77451;SDS011;66537;52.370;4.832;2023-05-19T14:39:43;8.77;;;2.80;;
77451;SDS011;66537;52.370;4.832;2023-05-19T14:42:08;8.73;;;3.13;;
77451;SDS011;66537;52.370;4.832;2023-05-19T14:44:34;10.90;;;2.97;;
77451;SDS011;66537;52.370;4.832;2023-05-19T14:47:01;13.25;;;2.88;;
77451;SDS011;66537;52.370;4.832;2023-05-19T14:49:27;16.15;;;3.17;;
77451;SDS011;66537;52.370;4.832;2023-05-19T14:51:53;8.27;;;3.15;;
77451;SDS011;66537;52.370;4.832;2023-05-19T14:54:18;14.65;;;3.17;;
77451;SDS011;66537;52.370;4.832;2023-05-19T14:56:44;11.35;;;3.03;;
77451;SDS011;66537;52.370;4.832;2023-05-19T14:59:09;14.63;;;3.58;;
77451;SDS011;66537;52.370;4.832;2023-05-19T15:01:34;13.77;;;3.30;;
77451;SDS011;66537;52.370;4.832;2023-05-19T15:04:00;11.03;;;2.93;;
77451;SDS011;66537;52.370;4.832;2023-05-19T15:06:25;11.87;;;3.73;;